Time;durP1;ratioP1;P1;durP2;ratioP2;P2;SDS_P1;SDS_P2;PMS_P1;PMS_P2;Temp;Humidity;BMP_temperature;BMP_pressure;BME280_temperature;BME280_humidity;BME280_pressure;Samples;Min_cycle;Max_cycle;Signal;HPM_P1;HPM_P2
2023/02/11 05:01:35;;;;;;;10.02;7.97;;;6.70;99.90;;;;;;5388266;23;20223;-67
2023/02/11 05:04:02;;;;;;;21.60;9.65;;;6.80;99.90;;;;;;4930268;29;20219;-67
2023/02/11 05:06:29;;;;;;;19.02;9.68;;;6.80;99.90;;;;;;4930448;29;20235;-67
2023/02/11 05:08:56;;;;;;;13.60;9.70;;;6.80;99.90;;;;;;4927726;29;20211;-67
2023/02/11 05:11:24;;;;;;;11.32;9.50;;;6.80;99.90;;;;;;4916324;29;20233;-67
2023/02/11 05:13:51;;;;;;;33.28;10.57;;;6.80;99.90;;;;;;4912437;29;20301;-66
2023/02/11 05:16:19;;;;;;;18.92;8.43;;;6.80;99.90;;;;;;4910241;29;20214;-66
2023/02/11 05:18:48;;;;;;;23.20;9.38;;;6.80;99.90;;;;;;4908757;29;20217;-67
2023/02/11 05:21:17;;;;;;;21.65;9.07;;;6.80;99.90;;;;;;4913295;29;20231;-67
2023/02/11 05:23:44;;;;;;;7.47;5.60;;;6.90;99.90;;;;;;4913072;29;20224;-67
2023/02/11 05:26:12;;;;;;;20.38;7.78;;;6.90;99.90;;;;;;4912839;29;20823;-67
2023/02/11 05:28:39;;;;;;;11.32;8.45;;;6.90;99.90;;;;;;4911678;29;20212;-67
2023/02/11 05:31:06;;;;;;;14.48;7.93;;;6.90;99.90;;;;;;4908221;29;20232;-67
2023/02/11 05:33:32;;;;;;;17.67;10.98;;;6.90;99.90;;;;;;4911927;29;20212;-67
2023/02/11 05:36:02;;;;;;;15.27;9.68;;;6.90;99.90;;;;;;4908579;29;20200;-67
2023/02/11 05:38:29;;;;;;;6.88;4.72;;;6.90;99.90;;;;;;4911960;29;20244;-67
2023/02/11 05:40:56;;;;;;;12.23;7.65;;;6.90;99.90;;;;;;4911948;29;20221;-68
2023/02/11 05:43:22;;;;;;;22.35;8.23;;;7.00;99.90;;;;;;4911928;29;20228;-67
2023/02/11 05:45:49;;;;;;;13.90;6.90;;;7.00;99.90;;;;;;4905156;29;20243;-67
2023/02/11 05:48:16;;;;;;;16.65;6.38;;;7.00;99.90;;;;;;4910357;29;20208;-68
2023/02/11 05:50:43;;;;;;;6.60;5.22;;;7.00;99.90;;;;;;4912235;29;20235;-68
2023/02/11 05:53:12;;;;;;;10.02;8.10;;;7.00;99.90;;;;;;4913166;29;20223;-67
2023/02/11 05:55:39;;;;;;;11.85;8.80;;;7.00;99.90;;;;;;4911326;29;20211;-67
2023/02/11 05:58:06;;;;;;;10.98;6.30;;;7.00;99.90;;;;;;4911692;29;20572;-67
2023/02/11 06:00:34;;;;;;;19.10;9.20;;;7.00;99.90;;;;;;4911220;29;20241;-68
2023/02/11 06:03:00;;;;;;;24.85;10.68;;;7.00;99.90;;;;;;4910217;29;20243;-68
2023/02/11 06:05:27;;;;;;;8.18;6.45;;;7.00;99.90;;;;;;4912051;29;20585;-67
2023/02/11 06:07:54;;;;;;;13.48;6.65;;;7.10;99.90;;;;;;4911279;29;20239;-67
2023/02/11 06:10:22;;;;;;;22.75;8.57;;;7.10;99.90;;;;;;4904904;29;20209;-68
2023/02/11 06:12:49;;;;;;;14.35;6.57;;;7.10;99.90;;;;;;4911658;29;20205;-68
2023/02/11 06:15:15;;;;;;;9.90;9.20;;;7.10;99.90;;;;;;4910351;29;20209;-67
2023/02/11 06:17:42;;;;;;;12.43;10.85;;;7.10;99.90;;;;;;4911672;29;20216;-68
2023/02/11 06:20:10;;;;;;;12.27;7.95;;;7.10;99.90;;;;;;4911390;29;20204;-67
2023/02/11 06:22:37;;;;;;;9.30;7.90;;;7.10;99.90;;;;;;4910992;29;20216;-68
2023/02/11 06:25:04;;;;;;;9.98;8.45;;;7.10;99.90;;;;;;4912611;29;20294;-68
2023/02/11 06:27:33;;;;;;;10.90;6.20;;;7.10;99.90;;;;;;4910668;29;20216;-67
2023/02/11 06:29:59;;;;;;;8.82;6.35;;;7.20;99.90;;;;;;4929163;23;20231;-67
2023/02/11 06:32:27;;;;;;;10.90;6.53;;;7.20;99.90;;;;;;4929580;29;20227;-68
2023/02/11 06:34:54;;;;;;;6.85;4.30;;;7.20;99.90;;;;;;4930511;29;20219;-67
2023/02/11 06:37:21;;;;;;;12.43;4.95;;;7.20;99.90;;;;;;4927732;29;21840;-67
2023/02/11 06:39:47;;;;;;;17.45;7.03;;;7.20;99.90;;;;;;4930909;29;20235;-66
2023/02/11 06:42:14;;;;;;;10.48;6.85;;;7.20;99.90;;;;;;4931395;29;20235;-68
2023/02/11 06:44:43;;;;;;;8.15;6.57;;;7.20;99.90;;;;;;4930257;29;20322;-69
2023/02/11 06:47:10;;;;;;;12.70;7.05;;;7.30;99.90;;;;;;4929845;29;20231;-68
2023/02/11 06:49:37;;;;;;;16.15;8.18;;;7.30;99.90;;;;;;4934990;29;20228;-68
2023/02/11 06:52:04;;;;;;;8.35;5.05;;;7.30;99.90;;;;;;4934538;29;20208;-68
2023/02/11 06:54:30;;;;;;;11.50;6.57;;;7.30;99.90;;;;;;4932381;29;20217;-68
2023/02/11 06:56:57;;;;;;;9.35;7.68;;;7.30;99.90;;;;;;4935978;29;20204;-69
2023/02/11 06:59:24;;;;;;;16.65;5.97;;;7.30;99.90;;;;;;4941199;29;20652;-68
2023/02/11 07:01:52;;;;;;;8.70;6.25;;;7.30;99.90;;;;;;4936707;29;20204;-68
2023/02/11 07:04:18;;;;;;;7.85;5.57;;;7.30;99.90;;;;;;4933127;29;20694;-68
2023/02/11 07:06:45;;;;;;;7.05;5.55;;;7.40;99.90;;;;;;4932467;29;20223;-68
2023/02/11 07:09:12;;;;;;;5.78;5.38;;;7.40;99.90;;;;;;4931275;29;20216;-68
2023/02/11 07:11:39;;;;;;;12.15;5.07;;;7.40;99.90;;;;;;4933396;29;20260;-69
2023/02/11 07:14:08;;;;;;;10.40;4.88;;;7.40;99.90;;;;;;4932950;29;20205;-69
2023/02/11 07:16:35;;;;;;;20.55;5.88;;;7.40;99.90;;;;;;4931516;29;20208;-67
2023/02/11 07:19:03;;;;;;;12.07;6.65;;;7.40;99.90;;;;;;4933742;29;20539;-69
2023/02/11 07:21:30;;;;;;;7.57;6.75;;;7.40;99.90;;;;;;4932133;29;20236;-68
2023/02/11 07:23:57;;;;;;;10.43;5.25;;;7.40;99.90;;;;;;4932876;29;20231;-68
2023/02/11 07:26:25;;;;;;;5.25;4.00;;;7.40;99.90;;;;;;4930670;29;20263;-69
2023/02/11 07:28:53;;;;;;;8.25;5.40;;;7.40;99.90;;;;;;4933577;29;20212;-68
2023/02/11 07:31:22;;;;;;;7.40;4.03;;;7.50;99.90;;;;;;4931296;29;20267;-68
2023/02/11 07:33:49;;;;;;;6.15;5.55;;;7.50;99.90;;;;;;4924445;29;20571;-68
2023/02/11 07:36:17;;;;;;;10.32;6.95;;;7.50;99.90;;;;;;4932176;29;20209;-68
2023/02/11 07:38:45;;;;;;;9.70;5.68;;;7.50;99.90;;;;;;4933968;29;20224;-68
2023/02/11 07:41:14;;;;;;;11.10;5.15;;;7.50;99.90;;;;;;4931614;29;20250;-69
2023/02/11 07:43:42;;;;;;;9.13;6.32;;;7.60;99.90;;;;;;4933234;29;20591;-68
2023/02/11 07:46:10;;;;;;;7.13;5.03;;;7.60;99.90;;;;;;4933598;29;20807;-68
2023/02/11 07:48:37;;;;;;;18.30;8.02;;;7.60;99.90;;;;;;4933043;29;20223;-69
2023/02/11 07:51:09;;;;;;;5.82;5.45;;;7.60;99.90;;;;;;4933880;29;20243;-69
2023/02/11 07:53:37;;;;;;;9.23;5.75;;;7.60;99.90;;;;;;4931589;29;20280;-67
2023/02/11 07:56:05;;;;;;;9.50;6.20;;;7.70;99.90;;;;;;4931398;29;20201;-68
2023/02/11 07:58:33;;;;;;;9.18;6.70;;;7.60;99.90;;;;;;4933487;29;20213;-68
2023/02/11 08:01:02;;;;;;;8.52;5.00;;;7.60;99.90;;;;;;4930401;29;20236;-68
2023/02/11 08:03:28;;;;;;;9.15;5.60;;;7.60;99.90;;;;;;4927208;29;20693;-69
2023/02/11 08:05:55;;;;;;;7.88;5.55;;;7.60;99.90;;;;;;4926213;29;20682;-69
2023/02/11 08:08:22;;;;;;;6.90;4.63;;;7.60;99.90;;;;;;4932050;29;20688;-67
2023/02/11 08:10:50;;;;;;;7.85;6.60;;;7.60;99.90;;;;;;4934597;29;20224;-68
2023/02/11 08:13:16;;;;;;;6.50;5.43;;;7.60;99.90;;;;;;4930840;29;20211;-68
2023/02/11 08:15:43;;;;;;;7.78;7.03;;;7.70;99.90;;;;;;4932375;29;20209;-67
2023/02/11 08:18:10;;;;;;;7.35;5.18;;;7.60;99.90;;;;;;4928963;29;20213;-69
2023/02/11 08:20:37;;;;;;;5.57;4.60;;;7.60;99.90;;;;;;4927912;29;20267;-69
2023/02/11 08:23:05;;;;;;;10.05;4.93;;;7.70;99.90;;;;;;4932877;29;20239;-68
2023/02/11 08:25:32;;;;;;;3.75;3.45;;;7.70;99.90;;;;;;4933045;29;20232;-69
2023/02/11 08:28:00;;;;;;;6.32;4.18;;;7.70;99.90;;;;;;4927942;29;20212;-68
2023/02/11 08:30:27;;;;;;;3.80;3.53;;;7.60;99.90;;;;;;4927887;29;20247;-68
2023/02/11 08:32:54;;;;;;;7.90;4.90;;;7.70;99.90;;;;;;4932023;29;20212;-69
2023/02/11 08:35:20;;;;;;;24.20;6.00;;;7.70;99.90;;;;;;4932424;29;20205;-68
2023/02/11 08:37:47;;;;;;;5.60;5.10;;;7.70;99.90;;;;;;4928012;29;20251;-69
2023/02/11 08:40:14;;;;;;;5.43;4.70;;;7.70;99.90;;;;;;4930624;29;20710;-68
2023/02/11 08:42:41;;;;;;;5.07;4.30;;;7.70;99.90;;;;;;4931399;29;20256;-68
2023/02/11 08:45:11;;;;;;;3.85;3.55;;;7.80;99.90;;;;;;4932010;29;20215;-68
2023/02/11 08:47:38;;;;;;;6.03;4.55;;;7.80;99.90;;;;;;4932437;29;20223;-68
2023/02/11 08:50:05;;;;;;;5.68;4.15;;;7.80;99.90;;;;;;4931708;29;20228;-68
2023/02/11 08:52:32;;;;;;;3.65;3.35;;;7.80;99.90;;;;;;4932964;29;20218;-68
2023/02/11 08:54:59;;;;;;;7.70;5.68;;;7.90;99.90;;;;;;4929939;29;20203;-68
2023/02/11 08:57:26;;;;;;;4.88;4.35;;;7.90;99.90;;;;;;4932849;29;20213;-69
2023/02/11 08:59:52;;;;;;;12.98;7.55;;;7.90;99.90;;;;;;4931266;29;20557;-68
2023/02/11 09:02:20;;;;;;;10.32;5.65;;;7.90;99.90;;;;;;4932892;29;20626;-68
2023/02/11 09:04:47;;;;;;;14.10;4.60;;;8.00;99.90;;;;;;4928191;29;20219;-68
2023/02/11 09:07:14;;;;;;;7.18;5.35;;;8.00;99.90;;;;;;4928989;29;20228;-69
2023/02/11 09:09:40;;;;;;;3.92;3.47;;;8.00;99.90;;;;;;4928510;29;20589;-68
2023/02/11 09:12:07;;;;;;;6.13;5.60;;;8.10;99.90;;;;;;4926126;29;20221;-69
2023/02/11 09:14:34;;;;;;;6.28;3.90;;;8.10;99.90;;;;;;4927940;29;20224;-69
2023/02/11 09:17:01;;;;;;;2.17;2.17;;;8.10;99.90;;;;;;4929880;29;20213;-69
2023/02/11 09:19:29;;;;;;;5.57;5.28;;;8.10;99.90;;;;;;4931796;29;20220;-70
2023/02/11 09:21:57;;;;;;;4.03;3.65;;;8.10;99.90;;;;;;4929839;29;20213;-69
2023/02/11 09:24:24;;;;;;;3.90;3.60;;;8.10;99.90;;;;;;4930803;29;20217;-69
2023/02/11 09:26:51;;;;;;;5.70;5.30;;;8.10;99.90;;;;;;4932453;29;20233;-69
2023/02/11 09:29:17;;;;;;;5.55;4.57;;;8.20;99.90;;;;;;4931239;29;20211;-68
2023/02/11 09:31:44;;;;;;;6.22;3.33;;;8.20;99.90;;;;;;4932046;29;20212;-67
2023/02/11 09:34:12;;;;;;;4.45;3.55;;;8.20;99.90;;;;;;4930674;29;20311;-67
2023/02/11 09:36:40;;;;;;;6.65;2.85;;;8.20;99.90;;;;;;4931536;29;20229;-68
2023/02/11 09:39:11;;;;;;;3.35;2.85;;;8.20;99.90;;;;;;4932798;29;20305;-68
2023/02/11 09:41:54;;;;;;;4.97;4.05;;;8.20;99.90;;;;;;4931061;29;20209;-68
2023/02/11 09:44:23;;;;;;;7.03;3.72;;;8.20;99.90;;;;;;4930859;29;20222;-68
2023/02/11 09:46:55;;;;;;;3.65;3.35;;;8.20;99.90;;;;;;4927289;29;20576;-68
2023/02/11 09:49:27;;;;;;;9.07;4.03;;;8.20;99.90;;;;;;4931351;29;20249;-68
2023/02/11 09:52:01;;;;;;;7.97;4.38;;;8.20;99.90;;;;;;4931273;29;20208;-69
2023/02/11 09:54:34;;;;;;;8.02;4.57;;;8.30;99.90;;;;;;4930873;29;20223;-69
2023/02/11 09:57:00;;;;;;;9.63;4.82;;;8.30;99.90;;;;;;4932185;29;20197;-69
2023/02/11 09:59:27;;;;;;;8.60;3.45;;;8.30;99.90;;;;;;4931541;29;20236;-68
2023/02/11 10:02:00;;;;;;;5.65;3.17;;;8.30;99.90;;;;;;4931917;29;20266;-68
2023/02/11 10:04:44;;;;;;;3.58;3.30;;;8.30;99.90;;;;;;4929561;29;20224;-68
2023/02/11 10:07:19;;;;;;;4.18;3.70;;;8.30;99.90;;;;;;4929325;29;20235;-68
2023/02/11 10:09:59;;;;;;;7.82;3.03;;;8.30;99.90;;;;;;4930986;28;20617;-69
2023/02/11 10:12:36;;;;;;;5.25;3.30;;;8.40;99.90;;;;;;4928898;29;20204;-69
2023/02/11 10:15:14;;;;;;;4.00;3.55;;;8.40;99.90;;;;;;4929987;29;20526;-70
2023/02/11 10:17:51;;;;;;;5.07;3.30;;;8.40;99.90;;;;;;4932504;29;20190;-69
2023/02/11 10:20:25;;;;;;;10.02;2.80;;;8.40;99.90;;;;;;4931233;29;20238;-69
2023/02/11 10:22:56;;;;;;;2.97;2.78;;;8.50;99.90;;;;;;4930838;29;20634;-69
2023/02/11 10:25:26;;;;;;;3.83;3.22;;;8.40;99.90;;;;;;4935629;29;20236;-68
2023/02/11 10:27:56;;;;;;;5.60;5.10;;;8.40;99.90;;;;;;4939870;29;20235;-68
2023/02/11 10:30:29;;;;;;;3.00;2.83;;;8.40;99.90;;;;;;4939909;28;20236;-69
2023/02/11 10:33:02;;;;;;;3.63;3.33;;;8.40;99.90;;;;;;4935636;29;20197;-69
2023/02/11 10:35:29;;;;;;;5.30;3.80;;;8.40;99.90;;;;;;4935119;29;20218;-69
2023/02/11 10:37:57;;;;;;;3.53;3.20;;;8.50;99.90;;;;;;4932511;29;20211;-69
2023/02/11 10:40:26;;;;;;;6.18;2.95;;;8.40;99.90;;;;;;4927458;29;20229;-68
2023/02/11 10:42:55;;;;;;;3.35;3.13;;;8.50;99.90;;;;;;4928249;29;20204;-67
2023/02/11 10:45:28;;;;;;;2.80;2.40;;;8.50;99.90;;;;;;4936029;29;20223;-67
2023/02/11 10:47:55;;;;;;;4.45;4.18;;;8.50;99.90;;;;;;4934535;29;20650;-68
2023/02/11 10:50:24;;;;;;;3.60;3.40;;;8.50;99.90;;;;;;4935178;29;20231;-68
2023/02/11 10:52:51;;;;;;;2.00;1.88;;;8.50;99.90;;;;;;4934419;29;20662;-69
2023/02/11 10:55:20;;;;;;;2.08;1.92;;;8.50;99.90;;;;;;4931777;29;20227;-69
2023/02/11 10:57:55;;;;;;;3.17;3.05;;;8.50;99.90;;;;;;4936765;29;20603;-68
2023/02/11 11:00:32;;;;;;;3.25;2.50;;;8.60;99.90;;;;;;4935358;29;20231;-69
2023/02/11 11:03:01;;;;;;;3.47;3.15;;;8.60;99.90;;;;;;4931103;29;20241;-69
2023/02/11 11:05:34;;;;;;;2.90;2.13;;;8.50;99.90;;;;;;4933745;29;20328;-69
2023/02/11 11:08:04;;;;;;;4.35;4.05;;;8.50;99.90;;;;;;4934606;29;20222;-68
2023/02/11 11:10:42;;;;;;;3.08;2.90;;;8.50;99.90;;;;;;4933925;29;20232;-69
2023/02/11 11:13:27;;;;;;;9.75;4.72;;;8.50;99.90;;;;;;4932829;29;20205;-68
2023/02/11 11:16:23;;;;;;;1.88;1.60;;;8.50;99.90;;;;;;4934392;29;20236;-69
2023/02/11 11:18:52;;;;;;;7.03;2.28;;;8.60;99.90;;;;;;4929572;29;20208;-68
2023/02/11 11:21:22;;;;;;;2.75;2.58;;;8.60;99.90;;;;;;4931196;29;20236;-68
2023/02/11 11:23:55;;;;;;;3.00;2.33;;;8.60;99.90;;;;;;4933832;29;20207;-68
2023/02/11 11:26:25;;;;;;;8.77;4.88;;;8.60;99.90;;;;;;4931204;29;20584;-70
2023/02/11 11:29:06;;;;;;;3.35;3.10;;;8.60;99.90;;;;;;4927635;29;20202;-68
2023/02/11 11:31:36;;;;;;;2.40;1.45;;;8.60;99.90;;;;;;4932714;29;20799;-68
2023/02/11 11:34:15;;;;;;;4.82;2.83;;;8.60;99.90;;;;;;4929465;29;20774;-68
2023/02/11 11:36:41;;;;;;;3.30;3.05;;;8.60;99.90;;;;;;4928214;29;20198;-71
2023/02/11 11:39:24;;;;;;;3.60;2.10;;;8.60;99.90;;;;;;4929694;29;20974;-69
2023/02/11 11:41:55;;;;;;;3.53;2.33;;;8.60;99.90;;;;;;4929896;29;20209;-68
2023/02/11 11:44:25;;;;;;;2.67;2.47;;;8.50;99.90;;;;;;4917911;29;20309;-69
2023/02/11 11:47:07;;;;;;;3.10;2.70;;;8.60;99.90;;;;;;4934626;29;20235;-70
2023/02/11 11:49:39;;;;;;;3.15;2.95;;;8.60;99.90;;;;;;4933873;29;20667;-69
2023/02/11 11:52:17;;;;;;;3.80;3.22;;;8.60;99.90;;;;;;4933689;29;20209;-68
2023/02/11 11:54:49;;;;;;;3.22;2.55;;;8.60;99.90;;;;;;4934128;29;20205;-68
2023/02/11 11:57:22;;;;;;;2.92;2.67;;;8.70;99.90;;;;;;4929312;29;20228;-68
2023/02/11 11:59:48;;;;;;;2.13;2.03;;;8.70;99.90;;;;;;4930961;29;20289;-68
2023/02/11 12:02:45;;;;;;;3.88;3.63;;;8.70;99.90;;;;;;4930339;29;20213;-69
2023/02/11 12:05:17;;;;;;;2.05;1.95;;;8.70;99.90;;;;;;4936630;28;20218;-69
2023/02/11 12:07:56;;;;;;;4.50;4.18;;;8.70;99.90;;;;;;4932377;28;20262;-69
2023/02/11 12:10:39;;;;;;;4.38;2.95;;;8.70;99.90;;;;;;4932224;29;20232;-69
2023/02/11 12:13:19;;;;;;;6.18;2.72;;;8.70;99.90;;;;;;4928556;29;20252;-68
2023/02/11 12:15:58;;;;;;;3.03;2.83;;;8.60;99.90;;;;;;4932962;29;20232;-68
2023/02/11 12:18:50;;;;;;;9.10;2.58;;;8.60;99.90;;;;;;4930048;29;20204;-68
2023/02/11 12:21:29;;;;;;;11.73;4.22;;;8.60;99.90;;;;;;4915788;29;20248;-68
2023/02/11 12:24:07;;;;;;;4.60;3.53;;;8.60;99.90;;;;;;4927125;29;20203;-68
2023/02/11 12:26:44;;;;;;;3.30;3.10;;;8.60;99.90;;;;;;4931362;29;20212;-69
2023/02/11 12:29:24;;;;;;;3.85;3.40;;;8.60;99.90;;;;;;4931918;29;20458;-68
2023/02/11 12:32:06;;;;;;;4.82;2.00;;;8.60;99.90;;;;;;4929570;29;20614;-67
2023/02/11 12:34:49;;;;;;;3.30;2.70;;;8.60;99.90;;;;;;4927386;29;20232;-67
2023/02/11 12:37:26;;;;;;;2.88;2.13;;;8.60;99.90;;;;;;4929383;29;20211;-68
2023/02/11 12:40:02;;;;;;;2.80;2.60;;;8.60;99.90;;;;;;4926069;29;20231;-68
2023/02/11 12:45:38;;;;;;;5.13;3.10;;;8.60;99.90;;;;;;4926848;29;20692;-70
2023/02/11 12:48:32;;;;;;;7.60;4.10;;;8.60;99.90;;;;;;4929547;29;20232;-69
2023/02/11 12:51:10;;;;;;;5.70;2.40;;;8.60;99.90;;;;;;4925390;29;20252;-69
2023/02/11 12:53:49;;;;;;;3.38;2.33;;;8.70;99.90;;;;;;4930008;29;20611;-69
2023/02/11 12:56:21;;;;;;;6.68;3.85;;;8.60;99.90;;;;;;4932569;29;20204;-68
2023/02/11 12:58:50;;;;;;;7.25;3.03;;;8.70;99.90;;;;;;4925563;29;20227;-68
2023/02/11 13:01:22;;;;;;;1.95;1.95;;;8.60;99.90;;;;;;4928088;29;20257;-68
2023/02/11 13:03:54;;;;;;;7.43;2.95;;;8.60;99.90;;;;;;4926627;29;20216;-67
2023/02/11 13:06:27;;;;;;;4.40;2.53;;;8.60;99.90;;;;;;4921824;29;20235;-67
2023/02/11 13:08:59;;;;;;;4.30;3.95;;;8.60;99.90;;;;;;4922805;29;20232;-68
2023/02/11 13:11:28;;;;;;;3.00;2.72;;;8.60;99.90;;;;;;4928142;29;20240;-68
2023/02/11 13:14:00;;;;;;;1.92;1.92;;;8.60;99.90;;;;;;4929941;29;20205;-67
2023/02/11 13:16:35;;;;;;;4.80;3.28;;;8.60;99.90;;;;;;4928325;29;20212;-69
2023/02/11 13:19:14;;;;;;;1.48;1.38;;;8.60;99.90;;;;;;4930642;29;20718;-68
2023/02/11 13:21:51;;;;;;;3.17;2.97;;;8.70;99.90;;;;;;4931817;29;20286;-67
2023/02/11 13:24:26;;;;;;;2.55;2.17;;;8.70;99.90;;;;;;4928211;29;20215;-68
2023/02/11 13:27:01;;;;;;;2.25;1.85;;;8.60;99.90;;;;;;4924818;29;20281;-69
2023/02/11 13:29:35;;;;;;;1.83;1.30;;;8.70;99.90;;;;;;4926943;29;20581;-68
2023/02/11 13:32:08;;;;;;;3.88;3.30;;;8.70;99.90;;;;;;4933343;29;20208;-68
2023/02/11 13:34:56;;;;;;;2.47;2.23;;;8.70;99.90;;;;;;4934642;29;20467;-69
2023/02/11 13:37:26;;;;;;;3.65;2.60;;;8.70;99.90;;;;;;4935217;29;20842;-70
2023/02/11 13:39:58;;;;;;;1.80;1.70;;;8.80;99.90;;;;;;4935524;29;20238;-68
2023/02/11 13:42:24;;;;;;;2.28;2.17;;;8.80;99.90;;;;;;4935494;29;20223;-68
2023/02/11 13:44:51;;;;;;;2.30;2.20;;;8.80;99.90;;;;;;4931905;29;20234;-69
2023/02/11 13:47:28;;;;;;;6.43;1.77;;;8.80;99.90;;;;;;4932006;29;20272;-68
2023/02/11 13:49:55;;;;;;;1.73;1.63;;;8.90;99.90;;;;;;4930523;29;20287;-67
2023/02/11 13:52:25;;;;;;;0.65;0.65;;;8.90;99.90;;;;;;4932750;29;20318;-68
2023/02/11 13:54:54;;;;;;;2.63;2.45;;;8.90;99.90;;;;;;4931181;29;20572;-69
2023/02/11 13:57:33;;;;;;;2.05;1.40;;;8.90;99.90;;;;;;4933427;29;20213;-69
2023/02/11 14:00:08;;;;;;;1.40;1.40;;;8.90;99.90;;;;;;4931274;29;20565;-68
2023/02/11 14:11:11;;;;;;;3.17;2.05;;;8.90;99.90;;;;;;4929038;29;20288;-68
2023/02/11 14:14:03;;;;;;;1.30;1.17;;;8.90;99.90;;;;;;4929735;29;20221;-68
2023/02/11 14:16:30;;;;;;;2.95;2.35;;;8.90;99.90;;;;;;4929270;29;20239;-69
2023/02/11 14:19:02;;;;;;;1.63;1.63;;;8.90;99.90;;;;;;4927756;29;20217;-68
2023/02/11 14:21:36;;;;;;;2.63;1.48;;;8.90;99.90;;;;;;4931715;29;20238;-67
2023/02/11 14:24:47;;;;;;;3.40;3.17;;;8.90;99.90;;;;;;4928808;29;20213;-68
2023/02/11 14:27:22;;;;;;;0.90;0.90;;;8.90;99.90;;;;;;4923863;29;20209;-69
2023/02/11 14:29:59;;;;;;;2.15;2.05;;;8.90;99.90;;;;;;4931138;29;20322;-69
2023/02/11 14:32:38;;;;;;;1.23;1.15;;;8.90;99.90;;;;;;4928551;29;20219;-69
2023/02/11 14:35:13;;;;;;;2.67;2.35;;;8.90;99.90;;;;;;4927183;29;20233;-69
2023/02/11 14:37:49;;;;;;;2.55;2.45;;;8.90;99.90;;;;;;4931324;29;20232;-69
2023/02/11 14:40:25;;;;;;;5.68;2.70;;;8.90;99.90;;;;;;4929044;29;20232;-68
2023/02/11 14:42:53;;;;;;;2.22;2.13;;;8.90;99.90;;;;;;4930770;29;20761;-69
2023/02/11 14:45:25;;;;;;;1.38;1.33;;;8.90;99.90;;;;;;4928332;29;20259;-68
2023/02/11 14:47:58;;;;;;;1.90;1.90;;;8.90;99.90;;;;;;4929903;29;20233;-69
2023/02/11 14:50:31;;;;;;;2.42;2.13;;;8.90;99.90;;;;;;4928197;29;20237;-69
2023/02/11 14:53:00;;;;;;;1.60;1.50;;;8.90;99.90;;;;;;4931247;29;20662;-69
2023/02/11 14:55:32;;;;;;;4.88;1.65;;;8.90;99.90;;;;;;4928841;29;20236;-68
2023/02/11 14:58:13;;;;;;;3.75;1.73;;;8.90;99.90;;;;;;4928556;29;20212;-68
2023/02/11 15:00:52;;;;;;;4.55;3.00;;;8.90;99.90;;;;;;4929525;29;20714;-69
2023/02/11 15:03:27;;;;;;;3.85;1.70;;;8.90;99.90;;;;;;4930498;29;20208;-69
2023/02/11 15:05:57;;;;;;;1.63;1.63;;;8.90;99.90;;;;;;4933155;29;20212;-69
2023/02/11 15:08:24;;;;;;;3.03;2.65;;;8.90;99.90;;;;;;4929260;29;20615;-68
2023/02/11 15:10:53;;;;;;;2.20;1.67;;;8.90;99.90;;;;;;4926088;29;20243;-68
2023/02/11 15:13:25;;;;;;;1.83;1.73;;;8.90;99.90;;;;;;4931436;29;20300;-67
2023/02/11 15:15:57;;;;;;;8.35;3.28;;;8.80;99.90;;;;;;4933891;29;20213;-68
2023/02/11 15:18:32;;;;;;;2.75;2.55;;;8.80;99.90;;;;;;4931543;29;20636;-68
2023/02/11 15:21:00;;;;;;;6.18;3.67;;;8.80;99.90;;;;;;4933373;29;20307;-69
2023/02/11 15:23:29;;;;;;;3.50;2.72;;;8.80;99.90;;;;;;4932568;29;20240;-68
2023/02/11 15:25:56;;;;;;;1.80;1.80;;;8.80;99.90;;;;;;4933952;29;20635;-68
2023/02/11 15:28:24;;;;;;;2.35;2.25;;;8.80;99.90;;;;;;4929499;29;20327;-68
2023/02/11 15:30:59;;;;;;;2.28;2.15;;;8.70;99.90;;;;;;4929649;29;20614;-68
2023/02/11 15:33:28;;;;;;;2.85;2.65;;;8.70;99.90;;;;;;4930356;29;20225;-68
2023/02/11 15:35:56;;;;;;;2.58;2.45;;;8.70;99.90;;;;;;4932078;29;20207;-69
2023/02/11 15:38:24;;;;;;;3.33;2.88;;;8.70;99.90;;;;;;4933310;29;20205;-69
2023/02/11 15:40:57;;;;;;;2.70;2.60;;;8.70;99.90;;;;;;4932696;29;20233;-69
2023/02/11 15:43:24;;;;;;;2.58;2.15;;;8.70;99.90;;;;;;4932979;29;20770;-68
2023/02/11 15:45:58;;;;;;;5.18;4.68;;;8.70;99.90;;;;;;4933051;29;20220;-68
2023/02/11 15:48:31;;;;;;;2.45;2.25;;;8.70;99.90;;;;;;4933499;29;20222;-69
2023/02/11 15:51:02;;;;;;;5.28;2.15;;;8.70;99.90;;;;;;4936760;28;20232;-67
2023/02/11 15:53:33;;;;;;;2.70;2.45;;;8.60;99.90;;;;;;4932090;29;20220;-68
2023/02/11 15:56:04;;;;;;;3.15;1.52;;;8.60;99.90;;;;;;4931505;29;20274;-68
2023/02/11 15:58:36;;;;;;;2.78;2.17;;;8.60;99.90;;;;;;4933659;29;20299;-68
2023/02/11 16:01:03;;;;;;;1.85;1.80;;;8.60;99.90;;;;;;4932075;29;20728;-68
2023/02/11 16:03:31;;;;;;;2.45;2.33;;;8.60;99.90;;;;;;4932998;29;20221;-69
2023/02/11 16:06:15;;;;;;;2.63;1.67;;;8.60;99.90;;;;;;4930912;29;20232;-69
2023/02/11 16:08:56;;;;;;;5.88;4.05;;;8.60;99.90;;;;;;4933969;29;20317;-68
2023/02/11 16:11:28;;;;;;;2.47;2.28;;;8.60;99.90;;;;;;4928083;29;20602;-69
2023/02/11 16:13:55;;;;;;;2.22;2.13;;;8.60;99.90;;;;;;4932880;29;20492;-69
2023/02/11 16:16:24;;;;;;;3.53;2.80;;;8.60;99.90;;;;;;4931230;29;20219;-69
2023/02/11 16:18:52;;;;;;;3.10;2.53;;;8.60;99.90;;;;;;4933042;29;20227;-68
2023/02/11 16:21:20;;;;;;;2.75;2.10;;;8.60;99.90;;;;;;4931981;29;20300;-69
2023/02/11 16:23:54;;;;;;;6.80;4.78;;;8.60;99.90;;;;;;4931467;29;20267;-68
2023/02/11 16:26:25;;;;;;;8.10;6.05;;;8.60;99.90;;;;;;4928897;29;20722;-69
2023/02/11 16:28:52;;;;;;;2.17;2.17;;;8.60;99.90;;;;;;4931499;29;20218;-68
2023/02/11 16:31:19;;;;;;;6.28;3.03;;;8.60;99.90;;;;;;4932901;29;20269;-69
2023/02/11 16:33:46;;;;;;;6.28;3.53;;;8.60;99.90;;;;;;4928089;29;20212;-69
2023/02/11 16:36:15;;;;;;;8.70;3.65;;;8.50;99.90;;;;;;4929157;29;20216;-67
2023/02/11 16:38:42;;;;;;;4.43;4.20;;;8.60;99.90;;;;;;4930951;29;20212;-68
2023/02/11 16:41:11;;;;;;;3.78;3.50;;;8.60;99.90;;;;;;4932988;29;20233;-68
2023/02/11 16:43:38;;;;;;;5.68;3.25;;;8.60;99.90;;;;;;4932184;29;20691;-68
2023/02/11 16:46:05;;;;;;;4.40;2.70;;;8.50;99.90;;;;;;4931057;29;20594;-68
2023/02/11 16:48:33;;;;;;;4.85;4.15;;;8.50;99.90;;;;;;4932686;29;20527;-69
2023/02/11 16:51:00;;;;;;;8.93;3.45;;;8.50;99.90;;;;;;4930764;29;20237;-68
2023/02/11 16:53:26;;;;;;;15.77;2.47;;;8.60;99.90;;;;;;4932162;29;20222;-68
2023/02/11 16:55:53;;;;;;;6.53;3.33;;;8.50;99.90;;;;;;4930579;29;20700;-68
2023/02/11 16:58:21;;;;;;;3.53;2.92;;;8.50;99.90;;;;;;4933137;29;20201;-68
2023/02/11 17:00:48;;;;;;;1.77;1.67;;;8.50;99.90;;;;;;4929362;29;20228;-68
2023/02/11 17:03:21;;;;;;;6.30;3.38;;;8.50;99.90;;;;;;4932083;29;20210;-68
2023/02/11 17:05:48;;;;;;;2.38;2.35;;;8.50;99.90;;;;;;4927909;29;20264;-68
2023/02/11 17:08:15;;;;;;;2.95;1.85;;;8.50;99.90;;;;;;4931480;29;20229;-69
2023/02/11 17:10:42;;;;;;;2.75;2.55;;;8.50;99.90;;;;;;4927870;29;20240;-68
2023/02/11 17:13:08;;;;;;;23.42;2.35;;;8.50;99.90;;;;;;4933294;29;20209;-67
2023/02/11 17:15:37;;;;;;;3.13;2.95;;;8.50;99.90;;;;;;4930958;29;20673;-68
2023/02/11 17:18:04;;;;;;;1.63;1.50;;;8.50;99.90;;;;;;4928206;29;20214;-68
2023/02/11 17:20:30;;;;;;;2.67;2.45;;;8.50;99.90;;;;;;4931442;29;20228;-68
2023/02/11 17:22:57;;;;;;;2.88;2.60;;;8.50;99.90;;;;;;4931649;29;20526;-68
2023/02/11 17:25:24;;;;;;;8.13;2.78;;;8.50;99.90;;;;;;4930304;29;20213;-68
2023/02/11 17:27:52;;;;;;;2.88;2.38;;;8.50;99.90;;;;;;4931684;29;20235;-68
2023/02/11 17:30:19;;;;;;;1.73;1.63;;;8.50;99.90;;;;;;4925107;29;20288;-67
2023/02/11 17:32:47;;;;;;;1.40;1.40;;;8.50;99.90;;;;;;4931982;29;20208;-68
2023/02/11 17:35:14;;;;;;;2.78;1.58;;;8.50;99.90;;;;;;4931753;29;20208;-68
2023/02/11 17:37:41;;;;;;;1.85;1.70;;;8.50;99.90;;;;;;4928925;29;20570;-68
2023/02/11 17:40:08;;;;;;;5.70;1.65;;;8.50;99.90;;;;;;4931691;29;20232;-67
2023/02/11 17:42:35;;;;;;;2.85;2.13;;;8.50;99.90;;;;;;4932806;29;20302;-68
2023/02/11 17:45:02;;;;;;;3.25;2.58;;;8.50;99.90;;;;;;4930329;29;20215;-67
2023/02/11 17:47:29;;;;;;;6.35;2.63;;;8.40;99.90;;;;;;4929560;29;20210;-68
2023/02/11 17:49:57;;;;;;;3.05;2.83;;;8.50;99.90;;;;;;4932286;29;20236;-68
2023/02/11 17:52:26;;;;;;;6.18;3.10;;;8.40;99.90;;;;;;4929407;29;22176;-68
2023/02/11 17:54:53;;;;;;;12.13;3.08;;;8.40;99.90;;;;;;4927957;29;20217;-68
2023/02/11 17:57:20;;;;;;;5.78;3.97;;;8.40;99.90;;;;;;4929414;29;20281;-68
2023/02/11 17:59:47;;;;;;;4.45;2.08;;;8.40;99.90;;;;;;4931682;29;20571;-68
2023/02/11 18:02:14;;;;;;;15.48;1.80;;;8.40;99.90;;;;;;4927947;29;20216;-68
2023/02/11 18:04:41;;;;;;;2.72;2.53;;;8.40;99.90;;;;;;4927323;29;20221;-68
2023/02/11 18:07:09;;;;;;;4.13;2.78;;;8.40;99.90;;;;;;4928555;29;20231;-67
2023/02/11 18:09:39;;;;;;;4.60;3.40;;;8.30;99.90;;;;;;4930723;29;20229;-68
2023/02/11 18:12:07;;;;;;;2.42;2.40;;;8.30;99.90;;;;;;4929433;29;20209;-68
2023/02/11 18:14:34;;;;;;;8.75;3.72;;;8.30;99.90;;;;;;4932295;29;20211;-67
2023/02/11 18:17:01;;;;;;;2.58;2.47;;;8.30;99.90;;;;;;4928651;29;20220;-67
2023/02/11 18:19:30;;;;;;;2.50;2.30;;;8.40;99.90;;;;;;4933627;29;20206;-68
2023/02/11 18:21:57;;;;;;;8.32;4.22;;;8.30;99.90;;;;;;4925026;29;20253;-68
2023/02/11 18:24:25;;;;;;;6.40;2.58;;;8.30;99.90;;;;;;4927388;29;20225;-69